Time;durP1;ratioP1;P1;durP2;ratioP2;P2;SDS_P1;SDS_P2;PMS_P1;PMS_P2;Temp;Humidity;BMP_temperature;BMP_pressure;BME280_temperature;BME280_humidity;BME280_pressure;Samples;Min_cycle;Max_cycle;Signal;HPM_P1;HPM_P2
2024/03/25 00:01:16;;;;;;;9.30;2.80;;;;;;;3.79;100.00;99562.10;109488;1250;75653;-54
2024/03/25 00:03:43;;;;;;;6.30;2.40;;;;;;;3.76;100.00;99566.86;109419;1250;66985;-57
2024/03/25 00:06:10;;;;;;;9.30;3.00;;;;;;;3.72;100.00;99561.60;109449;1249;73294;-55
2024/03/25 00:08:38;;;;;;;7.80;3.00;;;;;;;3.68;100.00;99565.23;109475;1250;60085;-54
2024/03/25 00:11:05;;;;;;;10.40;3.20;;;;;;;3.62;100.00;99566.70;109454;1250;60042;-54
2024/03/25 00:13:33;;;;;;;7.40;2.70;;;;;;;3.57;100.00;99564.80;109350;1251;75559;-53
2024/03/25 00:16:00;;;;;;;6.10;3.00;;;;;;;3.51;100.00;99564.08;109437;1250;66921;-58
2024/03/25 00:18:28;;;;;;;10.30;3.40;;;;;;;3.43;100.00;99559.07;109470;1249;73181;-54
2024/03/25 00:20:55;;;;;;;6.80;3.20;;;;;;;3.34;100.00;99556.86;109419;1250;59741;-54
2024/03/25 00:23:22;;;;;;;7.80;3.30;;;;;;;3.26;100.00;99551.41;109477;1249;59769;-54
2024/03/25 00:25:50;;;;;;;6.70;2.80;;;;;;;3.22;100.00;99552.23;109430;1251;74603;-56
2024/03/25 00:28:18;;;;;;;7.70;3.00;;;;;;;3.17;100.00;99551.86;109387;1250;67244;-57
2024/03/25 00:30:46;;;;;;;8.20;3.10;;;;;;;3.12;100.00;99548.77;109436;1252;72649;-54
2024/03/25 00:33:13;;;;;;;8.30;2.90;;;;;;;3.06;100.00;99546.70;109347;1251;60208;-53
2024/03/25 00:35:41;;;;;;;7.50;2.90;;;;;;;3.03;100.00;99546.49;109430;1251;59821;-53
2024/03/25 00:38:08;;;;;;;8.50;2.90;;;;;;;2.99;100.00;99546.91;109311;1250;75526;-57
2024/03/25 00:40:36;;;;;;;7.20;2.50;;;;;;;2.95;100.00;99548.33;109421;1249;67534;-54
2024/03/25 00:43:03;;;;;;;7.60;2.60;;;;;;;2.92;100.00;99549.70;109404;1249;72710;-54
2024/03/25 00:45:31;;;;;;;6.40;3.10;;;;;;;2.87;100.00;99550.54;109410;1250;60047;-54
2024/03/25 00:47:59;;;;;;;5.90;2.60;;;;;;;2.81;100.00;99555.55;109519;1249;59813;-54
2024/03/25 00:50:26;;;;;;;4.90;2.10;;;;;;;2.77;100.00;99554.04;109428;1250;75650;-54
2024/03/25 00:52:54;;;;;;;7.70;2.60;;;;;;;2.75;100.00;99557.74;109446;1250;66933;-54
2024/03/25 00:55:21;;;;;;;9.80;2.90;;;;;;;2.72;100.00;99558.55;109479;1249;72727;-55
2024/03/25 00:57:49;;;;;;;6.10;2.40;;;;;;;2.70;100.00;99555.17;109430;1250;59780;-54
2024/03/25 01:00:17;;;;;;;5.10;1.90;;;;;;;2.65;100.00;99555.86;109453;1250;60572;-54
2024/03/25 01:02:44;;;;;;;9.00;2.50;;;;;;;2.68;100.00;99548.63;109406;1250;73548;-58
2024/03/25 01:05:12;;;;;;;6.60;2.30;;;;;;;2.72;100.00;99543.06;109409;1251;67369;-54
2024/03/25 01:07:39;;;;;;;7.00;2.50;;;;;;;2.76;100.00;99542.04;109343;1252;72820;-54
2024/03/25 01:10:07;;;;;;;6.10;2.40;;;;;;;2.78;100.00;99542.11;109411;1251;60314;-54
2024/03/25 01:12:35;;;;;;;6.20;2.60;;;;;;;2.80;100.00;99545.17;109507;1250;59694;-54
2024/03/25 01:15:03;;;;;;;7.30;3.40;;;;;;;2.85;100.00;99541.92;109365;1251;75998;-55
2024/03/25 01:17:31;;;;;;;9.90;2.40;;;;;;;2.90;100.00;99542.83;109422;1250;65610;-54
2024/03/25 01:19:58;;;;;;;5.70;2.10;;;;;;;2.93;100.00;99546.17;109478;1251;71479;-55
2024/03/25 01:22:25;;;;;;;11.20;3.00;;;;;;;2.95;100.00;99543.54;109551;1250;60865;-54
2024/03/25 01:24:53;;;;;;;8.80;2.90;;;;;;;3.00;100.00;99544.73;109606;1249;59693;-58
2024/03/25 01:27:20;;;;;;;7.90;3.00;;;;;;;3.06;100.00;99547.81;109621;1250;75436;-54
2024/03/25 01:29:47;;;;;;;7.50;2.90;;;;;;;3.09;100.00;99546.27;109631;1249;67538;-54
2024/03/25 01:32:15;;;;;;;9.90;2.90;;;;;;;3.16;100.00;99548.85;109601;1250;72152;-54
2024/03/25 01:34:42;;;;;;;5.90;2.80;;;;;;;3.26;100.00;99547.86;109523;1250;60928;-54
2024/03/25 01:37:10;;;;;;;7.20;3.40;;;;;;;3.36;100.00;99548.77;109403;1251;60581;-57
2024/03/25 01:39:38;;;;;;;7.30;3.00;;;;;;;3.45;100.00;99548.67;109419;1250;74438;-54
2024/03/25 01:42:06;;;;;;;9.40;3.00;;;;;;;3.56;100.00;99549.98;109543;1249;67099;-55
2024/03/25 01:44:34;;;;;;;8.60;2.90;;;;;;;3.65;100.00;99545.14;109576;1250;72721;-54
2024/03/25 01:47:01;;;;;;;8.20;3.00;;;;;;;3.70;100.00;99542.59;109523;1250;60195;-55
2024/03/25 01:49:29;;;;;;;7.40;3.30;;;;;;;3.70;100.00;99543.06;109591;1250;60212;-54
2024/03/25 01:51:56;;;;;;;8.40;2.80;;;;;;;3.70;100.00;99543.13;109612;1250;74182;-54
2024/03/25 01:54:24;;;;;;;6.90;2.80;;;;;;;3.69;100.00;99540.10;109471;1250;66274;-54
2024/03/25 01:56:53;;;;;;;6.50;2.70;;;;;;;3.67;100.00;99537.39;109571;1250;72701;-54
2024/03/25 01:59:20;;;;;;;9.60;2.90;;;;;;;3.61;100.00;99537.75;109403;1250;61461;-54
2024/03/25 02:01:47;;;;;;;6.50;3.00;;;;;;;3.55;100.00;99535.98;109672;1250;59718;-54
2024/03/25 02:04:15;;;;;;;4.70;2.50;;;;;;;3.51;100.00;99540.83;109512;1250;74521;-55
2024/03/25 02:06:42;;;;;;;10.00;3.50;;;;;;;3.49;100.00;99544.11;109614;1250;67676;-56
2024/03/25 02:09:10;;;;;;;8.20;3.40;;;;;;;3.45;100.00;99543.33;109396;1250;72735;-55
2024/03/25 02:11:37;;;;;;;8.70;3.50;;;;;;;3.46;100.00;99545.84;109451;1250;59810;-54
2024/03/25 02:14:05;;;;;;;13.00;4.00;;;;;;;3.48;100.00;99543.91;109447;1250;59867;-55
2024/03/25 02:16:33;;;;;;;7.50;3.50;;;;;;;3.50;100.00;99544.92;109352;1251;75571;-55
2024/03/25 02:19:00;;;;;;;9.00;3.60;;;;;;;3.51;100.00;99541.61;109374;1252;67016;-57
2024/03/25 02:21:27;;;;;;;7.80;3.80;;;;;;;3.48;100.00;99538.06;109431;1251;72724;-54
2024/03/25 02:23:55;;;;;;;8.20;4.20;;;;;;;3.42;100.00;99536.46;109400;1251;60217;-54
2024/03/25 02:26:23;;;;;;;9.20;3.60;;;;;;;3.34;100.00;99533.88;109617;1250;60138;-54
2024/03/25 02:28:50;;;;;;;10.40;4.10;;;;;;;3.25;100.00;99528.77;109541;1250;75512;-58
2024/03/25 02:31:18;;;;;;;12.10;5.40;;;;;;;3.14;100.00;99526.72;109539;1250;67686;-54
2024/03/25 02:33:45;;;;;;;10.10;3.80;;;;;;;3.04;100.00;99518.46;109643;1250;71401;-54
2024/03/25 02:36:13;;;;;;;8.00;4.40;;;;;;;2.94;100.00;99511.26;109588;1250;60146;-54
2024/03/25 02:38:40;;;;;;;8.00;3.60;;;;;;;2.85;100.00;99512.98;109447;1250;60127;-58
2024/03/25 02:41:08;;;;;;;9.40;4.50;;;;;;;2.76;100.00;99515.36;109567;1250;74249;-54
2024/03/25 02:43:35;;;;;;;11.60;4.30;;;;;;;2.65;100.00;99525.04;109556;1250;66180;-55
2024/03/25 02:46:03;;;;;;;9.10;3.70;;;;;;;2.55;100.00;99522.25;109523;1250;72706;-54
2024/03/25 02:48:30;;;;;;;8.80;3.90;;;;;;;2.48;100.00;99517.80;109438;1250;59823;-54
2024/03/25 02:50:58;;;;;;;8.70;5.20;;;;;;;2.44;100.00;99515.23;109481;1250;60293;-55
2024/03/25 02:53:25;;;;;;;8.70;4.40;;;;;;;2.42;100.00;99517.83;109488;1250;73172;-54
2024/03/25 02:55:53;;;;;;;8.00;3.70;;;;;;;2.39;100.00;99517.27;109463;1249;65635;-54
2024/03/25 02:58:20;;;;;;;10.00;3.80;;;;;;;2.38;100.00;99520.52;109476;1250;72750;-54
2024/03/25 03:00:48;;;;;;;11.60;4.10;;;;;;;2.35;100.00;99520.09;109426;1249;61017;-54
2024/03/25 03:03:15;;;;;;;8.80;4.10;;;;;;;2.31;100.00;99518.42;109491;1250;59734;-54
2024/03/25 03:05:43;;;;;;;10.60;4.00;;;;;;;2.29;100.00;99516.06;109473;1250;75630;-54
2024/03/25 03:08:10;;;;;;;9.40;4.40;;;;;;;2.28;100.00;99514.96;109487;1250;65608;-54
2024/03/25 03:10:37;;;;;;;8.20;4.00;;;;;;;2.25;100.00;99513.72;109430;1249;72769;-54
2024/03/25 03:13:05;;;;;;;8.40;4.60;;;;;;;2.25;100.00;99517.64;109542;1250;61183;-55
2024/03/25 03:15:32;;;;;;;8.20;4.30;;;;;;;2.23;100.00;99515.75;109559;1250;60237;-55
2024/03/25 03:18:00;;;;;;;10.50;3.80;;;;;;;2.24;100.00;99518.94;109556;1250;74467;-55
2024/03/25 03:20:27;;;;;;;10.80;5.40;;;;;;;2.29;100.00;99523.89;109617;1250;66094;-54
2024/03/25 03:22:55;;;;;;;12.80;6.20;;;;;;;2.34;100.00;99527.00;109536;1249;72718;-54
2024/03/25 03:25:22;;;;;;;13.90;6.30;;;;;;;2.40;100.00;99535.58;109344;1251;60966;-58
2024/03/25 03:27:49;;;;;;;11.80;5.60;;;;;;;2.43;100.00;99541.09;109444;1251;59766;-54
2024/03/25 03:30:17;;;;;;;15.30;6.40;;;;;;;2.45;100.00;99543.62;109414;1250;75522;-54
2024/03/25 03:32:44;;;;;;;12.70;6.40;;;;;;;2.49;100.00;99549.58;109498;1252;65401;-54
2024/03/25 03:35:12;;;;;;;11.40;6.40;;;;;;;2.53;100.00;99546.84;109363;1251;71553;-54
2024/03/25 03:37:39;;;;;;;12.20;6.20;;;;;;;2.57;100.00;99546.74;109349;1251;61783;-54
2024/03/25 03:40:08;;;;;;;14.50;7.10;;;;;;;2.60;100.00;99551.05;109394;1251;60280;-54
2024/03/25 03:42:35;;;;;;;9.30;5.00;;;;;;;2.65;100.00;99553.83;109444;1250;75923;-55
2024/03/25 03:45:03;;;;;;;8.40;4.50;;;;;;;2.74;100.00;99556.27;109393;1251;66966;-55
2024/03/25 03:47:31;;;;;;;11.60;5.40;;;;;;;2.84;100.00;99554.60;109395;1251;72678;-54
2024/03/25 03:49:59;;;;;;;7.60;4.90;;;;;;;2.94;100.00;99550.14;109310;1251;60795;-55
2024/03/25 03:52:26;;;;;;;9.90;5.50;;;;;;;3.05;100.00;99551.00;109375;1251;60325;-55
2024/03/25 03:54:54;;;;;;;11.90;5.90;;;;;;;3.15;100.00;99554.64;109361;1251;75979;-54
2024/03/25 03:57:21;;;;;;;12.90;7.20;;;;;;;3.25;100.00;99555.15;109395;1251;67507;-54
2024/03/25 03:59:49;;;;;;;10.80;6.00;;;;;;;3.36;100.00;99559.58;109389;1251;70431;-55
2024/03/25 04:02:16;;;;;;;8.50;5.00;;;;;;;3.46;100.00;99557.17;109393;1251;60093;-55
2024/03/25 04:04:44;;;;;;;6.90;4.20;;;;;;;3.56;100.00;99563.19;109460;1250;60300;-55
2024/03/25 04:07:11;;;;;;;7.80;4.80;;;;;;;3.66;100.00;99561.88;109472;1250;75498;-54
2024/03/25 04:09:39;;;;;;;8.10;5.00;;;;;;;3.75;100.00;99560.06;109440;1251;67123;-54
2024/03/25 04:12:06;;;;;;;8.20;5.00;;;;;;;3.84;100.00;99558.48;109411;1252;72747;-58
2024/03/25 04:14:34;;;;;;;10.50;5.10;;;;;;;3.94;100.00;99558.67;109397;1252;60873;-55
2024/03/25 04:17:02;;;;;;;10.90;5.00;;;;;;;4.04;100.00;99564.85;109426;1251;60963;-54
2024/03/25 04:19:30;;;;;;;9.10;4.20;;;;;;;4.15;100.00;99565.11;109443;1251;75624;-55
2024/03/25 04:21:57;;;;;;;9.10;4.70;;;;;;;4.32;100.00;99569.31;109421;1251;67366;-58
2024/03/25 04:24:26;;;;;;;8.30;4.30;;;;;;;4.44;100.00;99570.85;109359;1251;72705;-54
2024/03/25 04:26:54;;;;;;;9.10;4.10;;;;;;;4.57;100.00;99571.77;109395;1251;61925;-54
2024/03/25 04:29:21;;;;;;;9.70;4.10;;;;;;;4.71;100.00;99569.80;109405;1251;60144;-55
2024/03/25 04:31:49;;;;;;;7.90;4.00;;;;;;;4.83;100.00;99568.79;109413;1251;74190;-55
2024/03/25 04:34:16;;;;;;;7.70;4.70;;;;;;;4.99;100.00;99569.84;109373;1251;66161;-57
2024/03/25 04:36:44;;;;;;;8.30;4.80;;;;;;;5.16;100.00;99564.02;109458;1250;71485;-54
2024/03/25 04:39:11;;;;;;;9.30;5.00;;;;;;;5.35;100.00;99568.21;109509;1250;59775;-55
2024/03/25 04:41:38;;;;;;;9.10;4.90;;;;;;;5.56;100.00;99571.60;109550;1250;60152;-55
2024/03/25 04:44:06;;;;;;;9.30;4.90;;;;;;;5.82;100.00;99579.30;109539;1250;74229;-55
2024/03/25 04:46:33;;;;;;;7.60;4.40;;;;;;;6.12;100.00;99577.61;109512;1250;67053;-56
2024/03/25 04:49:01;;;;;;;7.60;4.70;;;;;;;6.42;100.00;99581.82;109537;1250;72708;-56
2024/03/25 04:51:28;;;;;;;9.20;4.60;;;;;;;6.66;100.00;99587.60;109537;1250;60721;-55
2024/03/25 04:53:56;;;;;;;10.60;5.00;;;;;;;6.78;100.00;99596.77;109532;1249;60091;-55
2024/03/25 04:56:23;;;;;;;8.80;5.00;;;;;;;6.80;100.00;99594.19;109511;1250;75488;-55
2024/03/25 04:58:52;;;;;;;9.50;6.10;;;;;;;6.83;100.00;99595.48;109585;1249;65613;-55
2024/03/25 05:01:19;;;;;;;9.80;6.00;;;;;;;6.86;100.00;99591.36;109455;1250;72799;-55
2024/03/25 05:03:47;;;;;;;9.00;5.20;;;;;;;6.85;100.00;99586.13;109429;1251;61733;-55
2024/03/25 05:06:14;;;;;;;9.00;6.00;;;;;;;6.85;100.00;99582.73;109419;1251;60113;-55
2024/03/25 05:08:42;;;;;;;8.80;5.80;;;;;;;6.92;100.00;99580.75;109404;1251;74357;-55
2024/03/25 05:11:14;;;;;;;9.10;6.40;;;;;;;7.13;100.00;99583.09;109382;1250;65776;-55
2024/03/25 05:13:41;;;;;;;9.80;6.50;;;;;;;7.32;100.00;99584.40;109435;1250;72701;-55
2024/03/25 05:16:09;;;;;;;10.10;6.80;;;;;;;7.46;100.00;99578.87;109506;1250;60427;-55
2024/03/25 05:18:36;;;;;;;10.70;6.40;;;;;;;7.53;100.00;99580.59;109481;1250;60114;-55
2024/03/25 05:21:04;;;;;;;13.40;7.60;;;;;;;7.57;100.00;99574.92;109512;1250;74207;-55
2024/03/25 05:23:31;;;;;;;13.40;7.80;;;;;;;7.64;100.00;99569.45;109550;1250;67253;-55
2024/03/25 05:26:00;;;;;;;11.00;7.80;;;;;;;7.77;100.00;99562.52;109490;1250;72700;-55
2024/03/25 05:28:28;;;;;;;12.00;7.30;;;;;;;7.96;100.00;99558.43;109493;1250;59782;-58
2024/03/25 05:30:55;;;;;;;11.70;7.20;;;;;;;8.18;100.00;99561.10;109570;1250;60175;-55
2024/03/25 05:33:22;;;;;;;13.90;8.20;;;;;;;8.40;100.00;99561.41;109575;1250;74274;-56
2024/03/25 05:35:50;;;;;;;11.30;8.00;;;;;;;8.63;100.00;99556.45;109648;1249;67073;-55
2024/03/25 05:38:17;;;;;;;11.60;7.60;;;;;;;8.90;100.00;99557.75;109540;1250;72746;-55
2024/03/25 05:40:45;;;;;;;11.40;7.30;;;;;;;9.18;100.00;99552.25;109530;1249;61755;-56
2024/03/25 05:43:12;;;;;;;11.20;8.00;;;;;;;9.46;100.00;99545.92;109432;1252;59792;-56
2024/03/25 05:45:40;;;;;;;9.80;6.40;;;;;;;9.73;100.00;99540.66;109460;1249;75518;-55
2024/03/25 05:48:07;;;;;;;11.50;7.40;;;;;;;10.04;100.00;99537.99;109513;1250;65979;-54
2024/03/25 05:50:36;;;;;;;11.50;7.00;;;;;;;10.42;100.00;99535.73;109430;1250;72788;-54
2024/03/25 05:53:03;;;;;;;10.20;6.60;;;;;;;10.75;100.00;99534.52;109394;1250;60813;-55
2024/03/25 05:55:31;;;;;;;9.20;5.90;;;;;;;11.07;100.00;99527.35;109457;1250;59642;-56
2024/03/25 05:57:58;;;;;;;9.40;5.90;;;;;;;11.38;100.00;99514.36;109453;1250;75531;-55
2024/03/25 06:00:26;;;;;;;9.00;5.00;;;;;;;11.52;100.00;99503.81;109459;1250;66955;-55
2024/03/25 06:02:54;;;;;;;10.30;5.80;;;;;;;11.46;100.00;99491.18;109407;1251;72723;-55
2024/03/25 06:05:21;;;;;;;11.10;5.60;;;;;;;11.32;100.00;99474.27;109436;1250;60100;-56
2024/03/25 06:07:49;;;;;;;12.90;6.20;;;;;;;11.14;100.00;99466.98;109406;1252;60199;-54
2024/03/25 06:10:16;;;;;;;11.80;6.10;;;;;;;10.90;100.00;99466.03;109444;1250;75545;-55
2024/03/25 06:12:43;;;;;;;9.50;5.10;;;;;;;10.75;100.00;99466.07;109441;1251;65758;-55
2024/03/25 06:15:11;;;;;;;8.50;4.80;;;;;;;10.66;100.00;99462.02;109410;1252;73129;-59
2024/03/25 06:17:39;;;;;;;8.70;4.60;;;;;;;10.78;100.00;99455.84;109431;1250;62467;-55
2024/03/25 06:20:07;;;;;;;6.40;3.90;;;;;;;11.08;100.00;99450.54;109454;1250;60249;-56
2024/03/25 06:22:35;;;;;;;5.70;4.10;;;;;;;11.44;100.00;99448.98;109519;1250;75514;-56
2024/03/25 06:25:03;;;;;;;6.50;4.00;;;;;;;11.91;100.00;99439.86;109473;1250;69495;-56
2024/03/25 06:27:31;;;;;;;8.80;4.00;;;;;;;12.38;100.00;99433.69;109426;1250;73127;-55
2024/03/25 06:34:14;;;;;;;6.50;3.80;;;;;;;12.80;100.00;99425.39;109469;1250;61529;-56
2024/03/25 06:35:33;;;;;;;7.10;3.90;;;;;;;13.34;100.00;99404.34;109456;1250;76928;-56
2024/03/25 06:38:00;;;;;;;8.40;3.70;;;;;;;13.38;100.00;99402.27;109475;1250;69504;-56
2024/03/25 06:40:30;;;;;;;6.80;4.50;;;;;;;13.34;100.00;99395.55;109510;1250;71736;-56
2024/03/25 06:42:58;;;;;;;9.10;5.10;;;;;;;13.24;100.00;99393.59;109477;1252;62544;-56
2024/03/25 06:45:25;;;;;;;10.30;4.80;;;;;;;13.14;100.00;99398.16;109484;1250;61615;-55
2024/03/25 06:47:53;;;;;;;9.50;5.00;;;;;;;13.11;100.00;99397.63;109543;1250;78062;-55
2024/03/25 06:50:20;;;;;;;8.60;4.60;;;;;;;13.19;100.00;99397.02;109528;1250;67433;-55
2024/03/25 06:52:48;;;;;;;9.00;4.80;;;;;;;13.40;100.00;99396.27;109521;1250;72737;-56
2024/03/25 06:55:17;;;;;;;10.90;4.90;;;;;;;13.50;100.00;99396.63;109457;1250;60300;-59
2024/03/25 06:57:44;;;;;;;9.20;4.60;;;;;;;13.31;100.00;99398.30;109479;1250;60681;-55
2024/03/25 07:00:13;;;;;;;9.20;4.60;;;;;;;13.16;100.00;99401.80;109520;1250;74212;-56
2024/03/25 07:02:40;;;;;;;9.00;4.60;;;;;;;13.08;100.00;99395.91;109503;1250;69414;-55
2024/03/25 07:05:08;;;;;;;8.00;4.20;;;;;;;12.93;100.00;99399.65;109494;1252;72572;-55
2024/03/25 07:07:35;;;;;;;7.30;3.80;;;;;;;12.72;100.00;99396.70;109476;1250;60804;-55
2024/03/25 07:10:02;;;;;;;6.40;4.00;;;;;;;12.61;100.00;99392.97;109501;1251;59908;-55
2024/03/25 07:12:30;;;;;;;7.10;4.70;;;;;;;12.65;100.00;99396.18;109475;1251;74459;-56
2024/03/25 07:14:57;;;;;;;7.10;4.50;;;;;;;12.87;100.00;99392.29;109462;1250;66674;-55
2024/03/25 07:17:25;;;;;;;7.70;4.10;;;;;;;13.27;100.00;99393.25;109436;1251;75385;-55
2024/03/25 07:19:53;;;;;;;7.20;3.90;;;;;;;13.78;100.00;99382.98;109417;1251;61953;-54
2024/03/25 07:22:21;;;;;;;7.40;3.70;;;;;;;14.30;100.00;99383.98;109456;1250;59742;-55
2024/03/25 07:24:48;;;;;;;6.70;4.50;;;;;;;14.62;100.00;99380.27;109468;1250;75643;-56
2024/03/25 07:27:17;;;;;;;6.80;3.90;;;;;;;14.74;100.00;99381.58;109530;1250;68812;-55
2024/03/25 07:29:44;;;;;;;8.30;4.50;;;;;;;14.82;100.00;99377.72;109521;1250;74847;-56
2024/03/25 07:32:12;;;;;;;7.20;4.40;;;;;;;14.90;100.00;99370.09;109269;1250;61244;-56
2024/03/25 07:34:40;;;;;;;5.80;3.50;;;;;;;14.90;100.00;99371.91;109460;1250;61843;-56
2024/03/25 07:37:07;;;;;;;5.90;3.50;;;;;;;14.86;100.00;99371.50;109495;1250;75530;-56
2024/03/25 07:39:35;;;;;;;6.70;3.50;;;;;;;14.89;100.00;99363.88;109482;1250;68372;-55
2024/03/25 07:42:02;;;;;;;8.50;3.90;;;;;;;14.98;100.00;99368.63;109469;1251;73736;-58
2024/03/25 07:44:30;;;;;;;5.90;3.30;;;;;;;15.05;99.44;99361.26;109473;1250;61531;-54
2024/03/25 07:46:58;;;;;;;6.20;3.80;;;;;;;14.88;96.01;99360.97;109460;1250;62553;-56
2024/03/25 07:49:25;;;;;;;4.80;3.10;;;;;;;14.66;99.05;99356.88;109430;1250;77783;-56
2024/03/25 07:51:53;;;;;;;5.80;3.20;;;;;;;14.73;100.00;99352.38;109516;1250;69935;-56
2024/03/25 07:54:21;;;;;;;6.70;3.50;;;;;;;14.93;100.00;99353.35;109417;1253;73735;-57
2024/03/25 07:56:48;;;;;;;5.60;3.20;;;;;;;15.19;100.00;99349.16;109448;1251;61170;-55
2024/03/25 07:59:16;;;;;;;6.00;3.90;;;;;;;15.46;95.18;99351.27;109503;1250;62555;-55
2024/03/25 08:01:44;;;;;;;7.80;3.80;;;;;;;15.72;89.86;99348.72;109459;1250;76629;-55
2024/03/25 08:04:11;;;;;;;8.20;3.90;;;;;;;15.96;84.84;99347.42;109419;1250;69520;-59
2024/03/25 08:06:39;;;;;;;5.60;3.20;;;;;;;16.05;82.31;99341.09;109410;1250;73872;-56
2024/03/25 08:09:07;;;;;;;7.10;3.90;;;;;;;16.24;81.39;99344.52;109477;1251;62597;-55
2024/03/25 08:11:34;;;;;;;5.80;3.30;;;;;;;16.46;77.43;99342.84;109490;1250;62136;-55
2024/03/25 08:14:02;;;;;;;8.90;3.90;;;;;;;16.62;70.63;99339.41;109520;1249;77970;-56
2024/03/25 08:16:29;;;;;;;5.60;3.30;;;;;;;16.63;64.67;99336.23;109406;1251;69514;-58
2024/03/25 08:18:57;;;;;;;7.00;3.30;;;;;;;16.55;65.29;99336.23;109431;1250;74841;-56
2024/03/25 08:21:25;;;;;;;6.30;3.80;;;;;;;16.64;65.36;99338.49;109422;1251;62648;-55
2024/03/25 08:23:52;;;;;;;6.20;3.80;;;;;;;16.68;65.66;99332.86;109428;1251;62114;-55
2024/03/25 08:26:20;;;;;;;5.20;3.50;;;;;;;16.74;65.53;99331.73;109415;1251;78026;-55
2024/03/25 08:28:51;;;;;;;10.70;3.70;;;;;;;16.81;64.07;99328.35;109497;1250;68264;-56
2024/03/25 08:31:19;;;;;;;5.20;3.20;;;;;;;16.79;60.33;99323.42;109442;1251;73860;-55
2024/03/25 08:33:46;;;;;;;4.70;3.00;;;;;;;16.73;58.13;99320.15;109261;1252;61140;-56
2024/03/25 08:36:14;;;;;;;4.80;2.60;;;;;;;16.66;57.72;99315.73;109390;1250;61371;-56
2024/03/25 08:38:42;;;;;;;7.90;3.50;;;;;;;16.63;56.14;99320.09;109426;1250;77970;-56
2024/03/25 08:41:10;;;;;;;4.70;2.50;;;;;;;16.68;59.42;99325.06;109414;1252;69390;-56
2024/03/25 08:43:38;;;;;;;9.30;2.30;;;;;;;16.69;61.43;99329.23;109473;1252;75230;-55
2024/03/25 08:46:05;;;;;;;4.70;2.40;;;;;;;16.54;64.50;99333.70;109419;1251;61567;-56
2024/03/25 08:48:33;;;;;;;5.20;2.80;;;;;;;16.51;64.39;99331.08;109394;1253;60270;-57
2024/03/25 08:51:00;;;;;;;5.40;1.80;;;;;;;16.55;60.57;99331.55;109464;1250;76919;-57
2024/03/25 08:53:28;;;;;;;4.50;2.40;;;;;;;16.62;59.38;99326.53;109441;1250;68150;-55
2024/03/25 08:55:56;;;;;;;4.50;2.70;;;;;;;16.66;59.42;99325.32;109475;1250;75254;-56
2024/03/25 08:58:23;;;;;;;10.30;3.00;;;;;;;16.75;61.10;99320.38;109481;1250;62172;-56
2024/03/25 09:00:51;;;;;;;5.40;3.40;;;;;;;16.96;61.53;99313.66;109417;1250;61396;-56
2024/03/25 09:03:19;;;;;;;6.00;2.50;;;;;;;17.10;58.49;99320.13;109515;1250;77458;-55
2024/03/25 09:05:47;;;;;;;6.10;2.20;;;;;;;16.97;57.23;99321.73;109469;1249;68396;-55
2024/03/25 09:08:14;;;;;;;5.80;2.30;;;;;;;16.80;57.04;99317.93;109478;1250;73763;-57
2024/03/25 09:13:30;;;;;;;3.80;2.00;;;;;;;17.00;58.73;99313.08;109477;1250;61102;-55
2024/03/25 09:15:58;;;;;;;4.50;1.90;;;;;;;17.19;56.60;99304.15;109472;1250;78222;-56
2024/03/25 09:18:25;;;;;;;4.40;2.20;;;;;;;17.35;55.24;99299.81;109479;1250;68894;-55
2024/03/25 09:20:53;;;;;;;3.50;1.80;;;;;;;17.55;52.24;99298.61;109371;1253;73816;-56
2024/03/25 09:23:21;;;;;;;4.50;2.50;;;;;;;17.62;50.39;99302.67;109421;1252;61242;-55
2024/03/25 09:25:53;;;;;;;4.00;2.30;;;;;;;17.58;50.73;99294.46;109530;1250;61150;-56
2024/03/25 09:28:20;;;;;;;3.90;2.10;;;;;;;17.52;51.92;99293.64;109463;1250;77748;-59
2024/03/25 09:30:48;;;;;;;5.40;2.10;;;;;;;17.57;49.96;99292.56;109533;1250;67748;-56
2024/03/25 09:33:16;;;;;;;3.80;1.90;;;;;;;17.55;49.65;99292.13;109495;1253;75283;-56
2024/03/25 09:35:43;;;;;;;4.70;2.40;;;;;;;17.70;49.02;99289.51;109442;1250;62664;-56
2024/03/25 09:38:12;;;;;;;4.60;2.30;;;;;;;17.96;46.86;99290.42;109517;1250;61304;-56
2024/03/25 09:40:40;;;;;;;4.80;2.10;;;;;;;18.06;46.47;99295.55;109369;1251;76897;-56
2024/03/25 09:43:25;;;;;;;5.10;2.50;;;;;;;18.14;45.05;99285.63;109514;1250;69548;-56
2024/03/25 09:45:53;;;;;;;3.80;2.10;;;;;;;18.09;44.95;99281.95;109392;1249;74916;-56
2024/03/25 09:48:21;;;;;;;5.90;2.30;;;;;;;18.03;45.16;99286.93;109328;1250;62307;-56
2024/03/25 09:50:48;;;;;;;5.80;2.40;;;;;;;17.97;45.30;99290.01;109421;1250;62784;-56
2024/03/25 09:53:16;;;;;;;4.20;1.80;;;;;;;17.88;45.24;99283.31;109440;1250;77816;-57
2024/03/25 09:55:46;;;;;;;3.40;2.20;;;;;;;17.79;44.87;99280.03;109473;1250;67858;-56
2024/03/25 09:58:14;;;;;;;4.60;2.00;;;;;;;17.67;45.19;99285.52;109167;1250;75288;-56
2024/03/25 10:00:42;;;;;;;3.30;1.80;;;;;;;17.41;45.42;99284.27;109170;1250;61583;-56
2024/03/25 10:03:10;;;;;;;5.50;2.80;;;;;;;17.16;47.06;99274.89;109483;1250;61071;-56
2024/03/25 10:05:38;;;;;;;5.20;2.50;;;;;;;17.06;47.44;99271.48;109491;1250;76969;-56
2024/03/25 10:08:06;;;;;;;5.30;3.10;;;;;;;16.99;47.33;99268.48;109499;1250;68060;-56
2024/03/25 10:10:34;;;;;;;4.40;2.60;;;;;;;16.91;47.88;99267.60;109480;1250;73264;-57
2024/03/25 10:13:02;;;;;;;5.90;3.20;;;;;;;16.84;49.11;99262.42;109429;1250;62783;-55
2024/03/25 10:15:29;;;;;;;4.40;2.40;;;;;;;16.82;49.69;99260.93;109478;1250;61072;-56
2024/03/25 10:17:57;;;;;;;5.80;3.10;;;;;;;16.67;50.64;99260.02;109511;1250;77809;-55
2024/03/25 10:20:25;;;;;;;7.10;2.70;;;;;;;16.56;51.85;99256.89;109517;1250;69515;-55
2024/03/25 10:22:53;;;;;;;4.60;2.60;;;;;;;16.58;52.45;99253.91;109461;1251;75228;-58
2024/03/25 10:25:26;;;;;;;4.70;2.00;;;;;;;16.75;51.48;99244.95;109479;1253;62766;-54
2024/03/25 10:27:54;;;;;;;4.80;2.50;;;;;;;16.92;50.86;99238.02;109503;1250;61490;-55
2024/03/25 10:30:22;;;;;;;5.90;3.10;;;;;;;17.07;49.97;99230.84;109419;1250;77664;-55
2024/03/25 10:33:02;;;;;;;6.60;2.80;;;;;;;17.23;50.21;99231.83;109515;1250;69168;-55
2024/03/25 10:35:34;;;;;;;5.00;2.40;;;;;;;17.59;49.79;99223.42;109433;1249;73730;-55
2024/03/25 10:38:04;;;;;;;3.60;2.10;;;;;;;17.83;47.40;99215.80;109450;1249;62325;-55
2024/03/25 10:40:39;;;;;;;5.20;2.70;;;;;;;17.91;46.85;99209.77;109349;1250;62212;-55
2024/03/25 10:43:11;;;;;;;3.90;2.20;;;;;;;17.92;46.66;99204.83;109510;1250;77941;-55
2024/03/25 10:45:49;;;;;;;6.70;2.50;;;;;;;17.97;45.94;99203.09;109496;1250;68149;-54
2024/03/25 10:48:27;;;;;;;6.40;2.80;;;;;;;17.78;45.45;99202.27;109431;1250;75699;-56
2024/03/25 10:50:55;;;;;;;5.10;2.80;;;;;;;17.38;46.09;99200.84;109221;1250;61510;-55
2024/03/25 10:53:24;;;;;;;5.10;2.60;;;;;;;17.13;47.42;99199.77;109486;1250;62555;-55
2024/03/25 10:55:53;;;;;;;5.80;3.00;;;;;;;17.04;48.80;99195.27;109537;1250;77840;-55
2024/03/25 10:58:22;;;;;;;6.30;3.80;;;;;;;17.10;50.08;99193.59;109348;1250;69516;-57
2024/03/25 11:00:51;;;;;;;6.10;4.10;;;;;;;17.20;49.57;99192.18;109492;1250;73786;-55
2024/03/25 11:03:18;;;;;;;7.20;4.20;;;;;;;17.37;50.68;99191.36;109206;1250;61049;-54
2024/03/25 11:05:46;;;;;;;5.00;3.30;;;;;;;17.58;49.15;99190.16;109246;1258;59893;-55
2024/03/25 11:08:14;;;;;;;5.60;2.90;;;;;;;17.74;48.61;99182.15;109435;1250;77811;-59
2024/03/25 11:10:46;;;;;;;7.60;4.30;;;;;;;17.92;47.30;99181.09;109410;1249;69198;-55
2024/03/25 11:13:16;;;;;;;9.10;4.10;;;;;;;18.04;46.98;99175.34;109444;1250;75295;-55
2024/03/25 11:15:45;;;;;;;7.40;2.90;;;;;;;18.30;47.34;99165.45;109316;1250;223276;-56
2024/03/25 11:18:13;;;;;;;8.30;5.70;;;;;;;18.73;46.17;99162.95;109512;1250;63035;-59
2024/03/25 11:20:42;;;;;;;5.20;3.50;;;;;;;19.02;43.97;99164.92;109451;1254;76722;-56
2024/03/25 11:23:13;;;;;;;6.00;3.60;;;;;;;19.06;43.25;99164.50;109438;1257;69450;-55
2024/03/25 11:25:41;;;;;;;5.70;3.50;;;;;;;19.02;43.14;99162.14;109488;1249;73756;-56
2024/03/25 11:28:09;;;;;;;9.20;5.60;;;;;;;18.96;42.82;99158.41;109508;1249;61515;-56
2024/03/25 11:30:37;;;;;;;11.70;5.90;;;;;;;18.84;43.19;99152.25;109458;1250;61130;-56